sensor_id;sensor_type;location;lat;lon;timestamp;temperature;humidity
9311;DHT22;4694;52.464;13.480;2023-08-17T15:29:47;29.80;95.20
9311;DHT22;4694;52.464;13.480;2023-08-17T15:32:14;29.70;97.10
9311;DHT22;4694;52.464;13.480;2023-08-17T15:34:40;29.70;99.10
9311;DHT22;4694;52.464;13.480;2023-08-17T15:37:08;29.40;99.90
9311;DHT22;4694;52.464;13.480;2023-08-17T15:39:35;29.30;99.90
9311;DHT22;4694;52.464;13.480;2023-08-17T15:42:03;29.30;99.90
9311;DHT22;4694;52.464;13.480;2023-08-17T15:44:30;29.30;99.90
9311;DHT22;4694;52.464;13.480;2023-08-17T15:46:57;29.20;99.90
9311;DHT22;4694;52.464;13.480;2023-08-17T15:49:25;29.10;99.90
9311;DHT22;4694;52.464;13.480;2023-08-17T15:51:52;29.10;99.90
9311;DHT22;4694;52.464;13.480;2023-08-17T15:54:19;29.00;99.90
9311;DHT22;4694;52.464;13.480;2023-08-17T15:56:45;29.00;99.90
9311;DHT22;4694;52.464;13.480;2023-08-17T15:59:13;28.80;99.90
9311;DHT22;4694;52.464;13.480;2023-08-17T16:01:41;28.90;99.90
9311;DHT22;4694;52.464;13.480;2023-08-17T16:04:08;28.80;99.90
9311;DHT22;4694;52.464;13.480;2023-08-17T16:06:35;28.60;99.90
9311;DHT22;4694;52.464;13.480;2023-08-17T16:09:03;28.40;99.90
9311;DHT22;4694;52.464;13.480;2023-08-17T16:11:29;28.30;99.90
9311;DHT22;4694;52.464;13.480;2023-08-17T16:13:56;28.20;99.90
9311;DHT22;4694;52.464;13.480;2023-08-17T16:16:25;28.00;99.90
9311;DHT22;4694;52.464;13.480;2023-08-17T16:18:52;27.90;99.90
9311;DHT22;4694;52.464;13.480;2023-08-17T16:21:19;27.90;99.90
9311;DHT22;4694;52.464;13.480;2023-08-17T16:23:45;27.80;99.90
9311;DHT22;4694;52.464;13.480;2023-08-17T16:26:14;27.70;99.90
9311;DHT22;4694;52.464;13.480;2023-08-17T16:28:43;27.70;99.90
9311;DHT22;4694;52.464;13.480;2023-08-17T16:31:10;27.60;99.90
9311;DHT22;4694;52.464;13.480;2023-08-17T16:33:39;27.50;99.90
9311;DHT22;4694;52.464;13.480;2023-08-17T16:36:06;27.50;99.90
9311;DHT22;4694;52.464;13.480;2023-08-17T16:38:33;27.40;99.90
9311;DHT22;4694;52.464;13.480;2023-08-17T16:41:00;27.30;99.90
9311;DHT22;4694;52.464;13.480;2023-08-17T16:43:26;27.20;99.90
9311;DHT22;4694;52.464;13.480;2023-08-17T16:45:53;27.10;99.90
9311;DHT22;4694;52.464;13.480;2023-08-17T16:48:20;27.00;99.90
9311;DHT22;4694;52.464;13.480;2023-08-17T16:50:48;27.00;99.90
9311;DHT22;4694;52.464;13.480;2023-08-17T16:53:14;26.90;99.90
9311;DHT22;4694;52.464;13.480;2023-08-17T16:55:41;26.80;99.90
9311;DHT22;4694;52.464;13.480;2023-08-17T16:58:08;25.80;99.90
9311;DHT22;4694;52.464;13.480;2023-08-17T17:00:36;27.10;99.90
9311;DHT22;4694;52.464;13.480;2023-08-17T17:03:03;26.60;99.90
9311;DHT22;4694;52.464;13.480;2023-08-17T17:05:29;26.60;99.90
9311;DHT22;4694;52.464;13.480;2023-08-17T17:07:57;26.50;99.90
9311;DHT22;4694;52.464;13.480;2023-08-17T17:10:24;26.50;99.90
9311;DHT22;4694;52.464;13.480;2023-08-17T17:12:50;26.40;99.90
9311;DHT22;4694;52.464;13.480;2023-08-17T17:15:17;26.50;99.90
9311;DHT22;4694;52.464;13.480;2023-08-17T17:17:44;26.40;99.90
9311;DHT22;4694;52.464;13.480;2023-08-17T17:20:30;26.40;99.90
9311;DHT22;4694;52.464;13.480;2023-08-17T17:22:58;26.40;99.90
9311;DHT22;4694;52.464;13.480;2023-08-17T17:25:26;26.40;99.90
9311;DHT22;4694;52.464;13.480;2023-08-17T17:27:53;26.40;99.90
9311;DHT22;4694;52.464;13.480;2023-08-17T17:30:20;26.30;99.90
9311;DHT22;4694;52.464;13.480;2023-08-17T17:32:46;26.30;99.90
9311;DHT22;4694;52.464;13.480;2023-08-17T17:35:13;26.30;99.90
9311;DHT22;4694;52.464;13.480;2023-08-17T17:37:40;26.20;99.90
9311;DHT22;4694;52.464;13.480;2023-08-17T17:40:09;26.10;99.90
9311;DHT22;4694;52.464;13.480;2023-08-17T17:42:36;26.00;99.90
9311;DHT22;4694;52.464;13.480;2023-08-17T17:45:03;26.00;99.90
9311;DHT22;4694;52.464;13.480;2023-08-17T17:47:30;26.00;99.90
9311;DHT22;4694;52.464;13.480;2023-08-17T17:50:00;26.00;99.90
9311;DHT22;4694;52.464;13.480;2023-08-17T17:52:26;26.00;99.90
9311;DHT22;4694;52.464;13.480;2023-08-17T17:54:54;26.00;99.90
9311;DHT22;4694;52.464;13.480;2023-08-17T17:57:22;25.90;99.90
9311;DHT22;4694;52.464;13.480;2023-08-17T17:59:48;25.80;99.90
9311;DHT22;4694;52.464;13.480;2023-08-17T18:02:16;25.70;99.90
9311;DHT22;4694;52.464;13.480;2023-08-17T18:04:43;25.70;99.90
9311;DHT22;4694;52.464;13.480;2023-08-17T18:07:10;25.60;99.90
9311;DHT22;4694;52.464;13.480;2023-08-17T18:09:36;25.60;99.90
9311;DHT22;4694;52.464;13.480;2023-08-17T18:12:03;25.50;99.90
9311;DHT22;4694;52.464;13.480;2023-08-17T18:14:31;25.50;99.90
9311;DHT22;4694;52.464;13.480;2023-08-17T18:16:58;25.40;99.90
9311;DHT22;4694;52.464;13.480;2023-08-17T18:19:25;25.40;99.90
9311;DHT22;4694;52.464;13.480;2023-08-17T18:21:51;25.30;99.90
9311;DHT22;4694;52.464;13.480;2023-08-17T18:24:18;25.30;99.90
9311;DHT22;4694;52.464;13.480;2023-08-17T18:26:45;25.30;99.90
9311;DHT22;4694;52.464;13.480;2023-08-17T18:29:12;25.20;99.90
9311;DHT22;4694;52.464;13.480;2023-08-17T18:31:40;25.20;99.90
9311;DHT22;4694;52.464;13.480;2023-08-17T18:34:08;25.20;99.90
9311;DHT22;4694;52.464;13.480;2023-08-17T18:36:35;25.10;99.90
9311;DHT22;4694;52.464;13.480;2023-08-17T18:39:01;25.10;99.90
9311;DHT22;4694;52.464;13.480;2023-08-17T18:41:29;25.10;99.90
9311;DHT22;4694;52.464;13.480;2023-08-17T18:43:56;25.10;99.90
9311;DHT22;4694;52.464;13.480;2023-08-17T18:46:23;25.00;99.90
9311;DHT22;4694;52.464;13.480;2023-08-17T18:48:51;25.00;99.90
9311;DHT22;4694;52.464;13.480;2023-08-17T18:51:18;25.00;99.90
9311;DHT22;4694;52.464;13.480;2023-08-17T18:53:46;25.00;99.90
9311;DHT22;4694;52.464;13.480;2023-08-17T18:56:13;25.00;99.90
9311;DHT22;4694;52.464;13.480;2023-08-17T18:58:40;24.90;99.90
9311;DHT22;4694;52.464;13.480;2023-08-17T19:01:06;24.80;99.90
9311;DHT22;4694;52.464;13.480;2023-08-17T19:03:33;24.80;99.90
9311;DHT22;4694;52.464;13.480;2023-08-17T19:06:01;24.80;99.90
9311;DHT22;4694;52.464;13.480;2023-08-17T19:08:28;24.70;99.90
9311;DHT22;4694;52.464;13.480;2023-08-17T19:10:55;24.60;99.90
9311;DHT22;4694;52.464;13.480;2023-08-17T19:13:21;24.50;99.90
9311;DHT22;4694;52.464;13.480;2023-08-17T19:15:48;24.40;99.90
9311;DHT22;4694;52.464;13.480;2023-08-17T19:18:15;24.40;99.90
9311;DHT22;4694;52.464;13.480;2023-08-17T19:20:41;24.30;99.90
9311;DHT22;4694;52.464;13.480;2023-08-17T19:23:09;24.20;99.90
9311;DHT22;4694;52.464;13.480;2023-08-17T19:25:36;24.10;99.90
9311;DHT22;4694;52.464;13.480;2023-08-17T19:28:03;24.00;99.90
9311;DHT22;4694;52.464;13.480;2023-08-17T19:30:30;24.00;99.90
9311;DHT22;4694;52.464;13.480;2023-08-17T19:32:57;24.00;99.90
9311;DHT22;4694;52.464;13.480;2023-08-17T19:35:24;23.90;99.90
9311;DHT22;4694;52.464;13.480;2023-08-17T19:37:52;23.90;99.90
9311;DHT22;4694;52.464;13.480;2023-08-17T19:40:22;23.80;99.90
9311;DHT22;4694;52.464;13.480;2023-08-17T19:42:49;23.80;99.90
9311;DHT22;4694;52.464;13.480;2023-08-17T19:45:16;23.80;99.90
9311;DHT22;4694;52.464;13.480;2023-08-17T19:47:42;23.80;99.90
9311;DHT22;4694;52.464;13.480;2023-08-17T19:50:10;23.70;99.90
9311;DHT22;4694;52.464;13.480;2023-08-17T19:52:39;23.70;99.90
9311;DHT22;4694;52.464;13.480;2023-08-17T19:55:06;23.70;99.90
9311;DHT22;4694;52.464;13.480;2023-08-17T19:57:35;23.60;99.90
9311;DHT22;4694;52.464;13.480;2023-08-17T20:00:02;23.60;99.90
9311;DHT22;4694;52.464;13.480;2023-08-17T20:02:29;23.50;99.90
9311;DHT22;4694;52.464;13.480;2023-08-17T20:04:56;23.50;99.90
9311;DHT22;4694;52.464;13.480;2023-08-17T20:07:23;23.40;99.90
9311;DHT22;4694;52.464;13.480;2023-08-17T20:09:50;23.40;99.90
9311;DHT22;4694;52.464;13.480;2023-08-17T20:12:17;23.30;99.90
9311;DHT22;4694;52.464;13.480;2023-08-17T20:14:45;23.30;99.90
9311;DHT22;4694;52.464;13.480;2023-08-17T20:17:11;23.20;99.90
9311;DHT22;4694;52.464;13.480;2023-08-17T20:19:38;23.10;99.90
9311;DHT22;4694;52.464;13.480;2023-08-17T20:22:05;23.10;99.90
9311;DHT22;4694;52.464;13.480;2023-08-17T20:24:34;23.00;99.90
9311;DHT22;4694;52.464;13.480;2023-08-17T20:27:01;23.00;99.90
9311;DHT22;4694;52.464;13.480;2023-08-17T20:29:28;22.90;99.90
9311;DHT22;4694;52.464;13.480;2023-08-17T20:31:56;22.90;99.90
9311;DHT22;4694;52.464;13.480;2023-08-17T20:34:22;22.80;99.90
9311;DHT22;4694;52.464;13.480;2023-08-17T20:36:49;22.70;99.90
9311;DHT22;4694;52.464;13.480;2023-08-17T20:39:16;22.70;99.90
9311;DHT22;4694;52.464;13.480;2023-08-17T20:41:42;22.70;99.90
9311;DHT22;4694;52.464;13.480;2023-08-17T20:44:09;22.70;99.90
9311;DHT22;4694;52.464;13.480;2023-08-17T20:46:36;22.60;99.90
9311;DHT22;4694;52.464;13.480;2023-08-17T20:49:04;22.60;99.90
9311;DHT22;4694;52.464;13.480;2023-08-17T20:51:31;22.60;99.90
9311;DHT22;4694;52.464;13.480;2023-08-17T20:53:57;22.50;99.90
9311;DHT22;4694;52.464;13.480;2023-08-17T20:56:24;22.50;99.90
9311;DHT22;4694;52.464;13.480;2023-08-17T20:58:52;22.50;99.90
9311;DHT22;4694;52.464;13.480;2023-08-17T21:01:18;22.50;99.90
9311;DHT22;4694;52.464;13.480;2023-08-17T21:03:45;22.50;99.90
9311;DHT22;4694;52.464;13.480;2023-08-17T21:06:13;22.50;99.90
9311;DHT22;4694;52.464;13.480;2023-08-17T21:08:40;22.60;99.90
9311;DHT22;4694;52.464;13.480;2023-08-17T21:11:08;22.50;99.90
9311;DHT22;4694;52.464;13.480;2023-08-17T21:13:36;22.50;99.90
9311;DHT22;4694;52.464;13.480;2023-08-17T21:16:05;22.50;99.90
9311;DHT22;4694;52.464;13.480;2023-08-17T21:18:32;22.60;99.90
9311;DHT22;4694;52.464;13.480;2023-08-17T21:21:00;22.60;99.90
9311;DHT22;4694;52.464;13.480;2023-08-17T21:23:28;22.50;99.90
9311;DHT22;4694;52.464;13.480;2023-08-17T21:25:56;22.50;99.90
9311;DHT22;4694;52.464;13.480;2023-08-17T21:28:23;22.60;99.90
9311;DHT22;4694;52.464;13.480;2023-08-17T21:30:50;22.50;99.90
9311;DHT22;4694;52.464;13.480;2023-08-17T21:33:17;22.50;99.90
9311;DHT22;4694;52.464;13.480;2023-08-17T21:35:44;22.50;99.90
9311;DHT22;4694;52.464;13.480;2023-08-17T21:38:11;22.50;99.90
9311;DHT22;4694;52.464;13.480;2023-08-17T21:40:39;22.50;99.90
9311;DHT22;4694;52.464;13.480;2023-08-17T21:43:06;22.50;99.90
9311;DHT22;4694;52.464;13.480;2023-08-17T21:45:32;22.40;99.90
9311;DHT22;4694;52.464;13.480;2023-08-17T21:47:59;22.40;99.90
9311;DHT22;4694;52.464;13.480;2023-08-17T21:50:25;22.50;99.90
9311;DHT22;4694;52.464;13.480;2023-08-17T21:52:52;22.40;99.90
9311;DHT22;4694;52.464;13.480;2023-08-17T21:55:19;22.40;99.90
9311;DHT22;4694;52.464;13.480;2023-08-17T21:57:46;22.40;99.90
9311;DHT22;4694;52.464;13.480;2023-08-17T22:00:14;22.40;99.90
9311;DHT22;4694;52.464;13.480;2023-08-17T22:02:41;21.90;99.90
9311;DHT22;4694;52.464;13.480;2023-08-17T22:05:07;22.10;99.90
9311;DHT22;4694;52.464;13.480;2023-08-17T22:07:34;22.30;99.90
9311;DHT22;4694;52.464;13.480;2023-08-17T22:10:01;22.30;99.90
9311;DHT22;4694;52.464;13.480;2023-08-17T22:12:27;22.30;99.90
9311;DHT22;4694;52.464;13.480;2023-08-17T22:14:55;22.30;99.90
9311;DHT22;4694;52.464;13.480;2023-08-17T22:17:22;22.70;99.90
9311;DHT22;4694;52.464;13.480;2023-08-17T22:19:49;22.30;99.90
9311;DHT22;4694;52.464;13.480;2023-08-17T22:22:15;22.70;99.90
9311;DHT22;4694;52.464;13.480;2023-08-17T22:24:42;22.30;99.90
9311;DHT22;4694;52.464;13.480;2023-08-17T22:27:09;22.50;99.90
9311;DHT22;4694;52.464;13.480;2023-08-17T22:29:38;22.70;99.90
9311;DHT22;4694;52.464;13.480;2023-08-17T22:32:06;22.60;99.90
9311;DHT22;4694;52.464;13.480;2023-08-17T22:34:33;22.20;99.90
9311;DHT22;4694;52.464;13.480;2023-08-17T22:36:59;22.30;99.90
9311;DHT22;4694;52.464;13.480;2023-08-17T22:39:26;22.20;99.90
9311;DHT22;4694;52.464;13.480;2023-08-17T22:41:53;22.10;99.90
9311;DHT22;4694;52.464;13.480;2023-08-17T22:44:19;22.00;99.90
9311;DHT22;4694;52.464;13.480;2023-08-17T22:46:46;22.10;99.90
9311;DHT22;4694;52.464;13.480;2023-08-17T22:49:15;22.10;99.90
9311;DHT22;4694;52.464;13.480;2023-08-17T22:51:41;22.00;99.90
9311;DHT22;4694;52.464;13.480;2023-08-17T22:54:08;22.00;99.90
9311;DHT22;4694;52.464;13.480;2023-08-17T22:56:35;22.00;99.90
9311;DHT22;4694;52.464;13.480;2023-08-17T22:59:02;22.00;99.90
9311;DHT22;4694;52.464;13.480;2023-08-17T23:01:29;22.00;99.90
9311;DHT22;4694;52.464;13.480;2023-08-17T23:03:56;21.90;99.90
9311;DHT22;4694;52.464;13.480;2023-08-17T23:06:23;21.90;99.90
9311;DHT22;4694;52.464;13.480;2023-08-17T23:08:50;21.90;99.90
9311;DHT22;4694;52.464;13.480;2023-08-17T23:11:17;21.90;99.90
9311;DHT22;4694;52.464;13.480;2023-08-17T23:13:43;21.80;99.90
9311;DHT22;4694;52.464;13.480;2023-08-17T23:16:10;21.80;99.90
9311;DHT22;4694;52.464;13.480;2023-08-17T23:18:37;21.80;99.90
9311;DHT22;4694;52.464;13.480;2023-08-17T23:21:03;21.80;99.90
9311;DHT22;4694;52.464;13.480;2023-08-17T23:23:31;21.70;99.90
9311;DHT22;4694;52.464;13.480;2023-08-17T23:25:58;21.70;99.90
9311;DHT22;4694;52.464;13.480;2023-08-17T23:28:25;21.70;99.90
9311;DHT22;4694;52.464;13.480;2023-08-17T23:30:52;21.60;99.90
9311;DHT22;4694;52.464;13.480;2023-08-17T23:33:18;21.60;99.90
9311;DHT22;4694;52.464;13.480;2023-08-17T23:35:45;21.60;99.90
9311;DHT22;4694;52.464;13.480;2023-08-17T23:38:11;21.60;99.90
9311;DHT22;4694;52.464;13.480;2023-08-17T23:40:39;21.50;99.90
9311;DHT22;4694;52.464;13.480;2023-08-17T23:43:06;21.50;99.90
9311;DHT22;4694;52.464;13.480;2023-08-17T23:45:33;21.50;99.90
9311;DHT22;4694;52.464;13.480;2023-08-17T23:47:59;21.40;99.90
9311;DHT22;4694;52.464;13.480;2023-08-17T23:50:26;21.50;99.90
9311;DHT22;4694;52.464;13.480;2023-08-17T23:52:52;21.40;99.90
9311;DHT22;4694;52.464;13.480;2023-08-17T23:55:19;21.40;99.90
9311;DHT22;4694;52.464;13.480;2023-08-17T23:57:48;21.40;99.90
